EDT,Max TemperatureF,Mean TemperatureF,Min TemperatureF,Max Dew PointF,MeanDew PointF,Min DewpointF,Max Humidity, Mean Humidity, Min Humidity, Max Sea Level PressureIn, Mean Sea Level PressureIn, Min Sea Level PressureIn, Max VisibilityMiles, Mean VisibilityMiles, Min VisibilityMiles, Max Wind SpeedMPH, Mean Wind SpeedMPH, Max Gust SpeedMPH,PrecipitationIn, CloudCover, Events, WindDirDegrees
2013-8-1,82,76,71,79,75,72,100,95,74,30.03,29.98,29.95,10,10,3,13,1,,0.00,4,Rain-Thunderstorm,221
2013-8-2,87,79,71,79,75,72,100,88,62,30.06,30.01,29.95,10,10,7,15,1,20,0.00,2,Thunderstorm,199
2013-8-3,87,79,71,81,77,72,100,94,66,30.06,30.02,29.95,10,10,1,9,0,,0.01,3,Rain,115
2013-8-4,91,81,71,79,75,72,100,83,55,30.02,29.96,29.90,10,10,7,8,1,16,0.00,1,Rain,322
2013-8-5,84,78,71,77,69,63,100,75,48,30.08,30.04,29.99,10,10,10,14,2,20,0.00,2,,104
2013-8-6,86,77,68,72,68,64,100,77,55,30.07,30.04,29.98,10,10,10,13,1,,0.00,1,,109
2013-8-7,86,77,68,75,72,68,100,88,62,30.10,30.06,30.03,10,10,7,8,0,,0.00,3,,84
2013-8-8,93,81,69,81,75,70,100,92,59,30.09,30.06,30.03,10,10,4,10,2,,0.10,1,Rain-Thunderstorm,159
2013-8-9,89,80,71,81,75,72,100,85,62,30.13,30.09,30.04,10,10,2,12,5,16,0.00,1,,193
2013-8-10,89,80,71,81,76,72,100,87,59,30.15,30.12,30.08,10,10,4,14,3,17,0.03,1,Rain,218
2013-8-11,93,83,73,79,76,72,100,83,49,30.16,30.11,30.06,10,10,10,10,6,,0.00,0,,234
2013-8-12,95,86,77,81,77,73,100,80,49,30.08,30.03,29.98,10,10,10,12,6,16,0.00,1,,238
2013-8-13,93,85,77,81,78,73,100,84,52,30.00,29.93,29.85,10,10,10,15,8,21,0.00,2,Thunderstorm,229
2013-8-14,82,76,69,81,75,70,100,97,79,30.03,29.93,29.86,10,9,0,10,6,,1.10,5,Rain-Thunderstorm,305
2013-8-15,69,66,62,70,66,63,100,100,100,30.11,30.06,30.02,10,9,2,13,8,18,1.35,8,Rain,20
2013-8-16,75,70,64,73,70,64,100,100,94,30.11,30.07,30.04,10,9,1,12,7,20,1.02,8,Rain-Thunderstorm,38
2013-8-17,78,73,68,75,72,68,100,97,83,30.17,30.10,30.04,10,9,4,10,5,,0.00,7,Thunderstorm,339
2013-8-18,87,78,69,79,74,70,100,91,66,30.21,30.16,30.13,10,9,4,12,2,,0.00,1,Rain,104
2013-8-19,86,78,71,79,76,72,100,96,74,30.17,30.11,30.07,10,9,0,12,1,,1.03,4,Rain-Thunderstorm,124
2013-8-20,86,78,71,81,75,72,100,97,74,30.18,30.13,30.08,10,7,0,9,1,,0.13,4,Fog-Rain-Thunderstorm,92
2013-8-21,87,80,73,81,75,72,100,82,58,30.23,30.18,30.13,10,9,0,12,2,,0.05,2,Fog-Rain-Thunderstorm,139
2013-8-22,89,80,71,79,74,72,100,87,58,30.17,30.12,30.04,10,10,10,10,2,16,0.00,1,Thunderstorm,227
2013-8-23,91,81,71,79,74,72,100,86,55,30.06,30.02,29.96,10,10,10,13,5,17,0.00,1,,242
2013-8-24,82,76,71,75,71,66,100,87,70,30.24,30.14,30.03,10,10,10,15,5,17,0.00,4,Thunderstorm,37
2013-8-25,80,72,64,68,65,63,100,79,58,30.32,30.27,30.23,10,10,10,16,8,22,0.00,1,,34
2013-8-26,82,73,64,68,65,63,100,77,54,30.28,30.22,30.15,10,10,10,12,6,17,0.00,1,,52
2013-8-27,84,73,62,72,65,63,100,80,51,30.16,30.09,30.03,10,10,10,12,2,,0.00,1,,229
2013-8-28,89,78,68,73,70,64,100,79,52,30.05,30.00,29.95,10,10,10,9,5,,0.00,1,,242
2013-8-29,91,81,71,79,74,72,100,83,55,29.98,29.93,29.87,10,10,10,12,7,16,0.00,2,Rain-Thunderstorm,250
2013-8-30,82,76,71,77,74,72,100,90,74,30.03,29.98,29.94,10,10,7,12,7,16,0.00,4,,68
2013-8-31,86,78,71,79,75,72,100,86,70,29.99,29.95,29.91,10,8,0,10,3,,0.00,3,Fog-Rain,136